sensor_id;sensor_type;location;lat;lon;timestamp;temperature;humidity
27258;DHT22;62045;49.986;8.672;2022-12-07T00:02:31;15.10;63.50
27258;DHT22;62045;49.986;8.672;2022-12-07T00:07:33;15.20;63.20
27258;DHT22;62045;49.986;8.672;2022-12-07T00:12:33;15.30;62.90
27258;DHT22;62045;49.986;8.672;2022-12-07T00:17:34;15.30;62.70
27258;DHT22;62045;49.986;8.672;2022-12-07T00:22:36;15.30;62.50
27258;DHT22;62045;49.986;8.672;2022-12-07T00:27:37;15.30;62.50
27258;DHT22;62045;49.986;8.672;2022-12-07T00:32:38;15.30;62.60
27258;DHT22;62045;49.986;8.672;2022-12-07T00:37:40;15.20;62.80
27258;DHT22;62045;49.986;8.672;2022-12-07T00:42:40;15.20;63.00
27258;DHT22;62045;49.986;8.672;2022-12-07T00:47:41;15.20;63.10
27258;DHT22;62045;49.986;8.672;2022-12-07T00:52:43;15.10;63.10
27258;DHT22;62045;49.986;8.672;2022-12-07T00:57:44;15.10;63.20
27258;DHT22;62045;49.986;8.672;2022-12-07T01:02:44;15.10;63.30
27258;DHT22;62045;49.986;8.672;2022-12-07T01:07:46;15.10;63.10
27258;DHT22;62045;49.986;8.672;2022-12-07T01:12:47;15.20;63.00
27258;DHT22;62045;49.986;8.672;2022-12-07T01:17:48;15.30;62.70
27258;DHT22;62045;49.986;8.672;2022-12-07T01:22:50;15.40;62.50
27258;DHT22;62045;49.986;8.672;2022-12-07T01:27:51;15.40;62.40
27258;DHT22;62045;49.986;8.672;2022-12-07T01:32:51;15.30;62.40
27258;DHT22;62045;49.986;8.672;2022-12-07T01:37:53;15.30;62.50
27258;DHT22;62045;49.986;8.672;2022-12-07T01:42:54;15.20;62.60
27258;DHT22;62045;49.986;8.672;2022-12-07T01:47:56;15.20;62.80
27258;DHT22;62045;49.986;8.672;2022-12-07T01:53:02;15.10;62.90
27258;DHT22;62045;49.986;8.672;2022-12-07T01:58:04;15.00;63.00
27258;DHT22;62045;49.986;8.672;2022-12-07T02:03:08;15.00;63.10
27258;DHT22;62045;49.986;8.672;2022-12-07T02:08:12;15.00;63.20
27258;DHT22;62045;49.986;8.672;2022-12-07T02:13:15;15.00;63.00
27258;DHT22;62045;49.986;8.672;2022-12-07T02:18:22;15.20;62.80
27258;DHT22;62045;49.986;8.672;2022-12-07T02:23:41;15.30;62.40
27258;DHT22;62045;49.986;8.672;2022-12-07T02:29:13;15.30;62.10
27258;DHT22;62045;49.986;8.672;2022-12-07T02:34:21;15.40;62.00
27258;DHT22;62045;49.986;8.672;2022-12-07T02:39:30;15.30;62.00
27258;DHT22;62045;49.986;8.672;2022-12-07T02:44:32;15.30;62.10
27258;DHT22;62045;49.986;8.672;2022-12-07T02:49:34;15.20;62.20
27258;DHT22;62045;49.986;8.672;2022-12-07T02:54:36;15.20;62.40
27258;DHT22;62045;49.986;8.672;2022-12-07T02:59:49;15.10;62.60
27258;DHT22;62045;49.986;8.672;2022-12-07T03:05:03;15.00;62.60
27258;DHT22;62045;49.986;8.672;2022-12-07T03:10:11;15.00;62.70
27258;DHT22;62045;49.986;8.672;2022-12-07T03:15:21;14.90;62.80
27258;DHT22;62045;49.986;8.672;2022-12-07T03:20:29;15.00;62.70
27258;DHT22;62045;49.986;8.672;2022-12-07T03:25:33;15.10;62.50
27258;DHT22;62045;49.986;8.672;2022-12-07T03:30:42;15.20;62.20
27258;DHT22;62045;49.986;8.672;2022-12-07T03:35:47;15.30;62.60
27258;DHT22;62045;49.986;8.672;2022-12-07T03:40:57;15.30;61.70
27258;DHT22;62045;49.986;8.672;2022-12-07T03:46:06;15.30;61.70
27258;DHT22;62045;49.986;8.672;2022-12-07T03:51:21;15.30;61.80
27258;DHT22;62045;49.986;8.672;2022-12-07T03:56:22;15.20;61.80
27258;DHT22;62045;49.986;8.672;2022-12-07T04:01:25;15.20;62.10
27258;DHT22;62045;49.986;8.672;2022-12-07T04:06:26;15.10;62.20
27258;DHT22;62045;49.986;8.672;2022-12-07T04:11:26;15.10;62.40
27258;DHT22;62045;49.986;8.672;2022-12-07T04:16:28;15.10;62.50
27258;DHT22;62045;49.986;8.672;2022-12-07T04:21:29;15.00;62.50
27258;DHT22;62045;49.986;8.672;2022-12-07T04:26:30;15.10;62.60
27258;DHT22;62045;49.986;8.672;2022-12-07T04:31:32;15.20;62.40
27258;DHT22;62045;49.986;8.672;2022-12-07T04:36:33;15.30;62.10
27258;DHT22;62045;49.986;8.672;2022-12-07T04:41:34;15.30;61.70
27258;DHT22;62045;49.986;8.672;2022-12-07T04:46:36;15.40;61.60
27258;DHT22;62045;49.986;8.672;2022-12-07T04:51:36;15.40;61.60
27258;DHT22;62045;49.986;8.672;2022-12-07T04:56:37;15.30;61.60
27258;DHT22;62045;49.986;8.672;2022-12-07T05:01:39;15.30;61.70
27258;DHT22;62045;49.986;8.672;2022-12-07T05:06:40;15.20;61.90
27258;DHT22;62045;49.986;8.672;2022-12-07T05:11:41;15.10;62.00
27258;DHT22;62045;49.986;8.672;2022-12-07T05:16:44;15.10;62.20
27258;DHT22;62045;49.986;8.672;2022-12-07T05:21:46;15.00;62.30
27258;DHT22;62045;49.986;8.672;2022-12-07T05:26:47;15.00;62.40
27258;DHT22;62045;49.986;8.672;2022-12-07T05:31:49;15.00;62.20
27258;DHT22;62045;49.986;8.672;2022-12-07T05:36:49;15.20;62.00
27258;DHT22;62045;49.986;8.672;2022-12-07T05:41:50;15.40;61.50
27258;DHT22;62045;49.986;8.672;2022-12-07T05:46:52;15.50;61.10
27258;DHT22;62045;49.986;8.672;2022-12-07T05:51:53;15.50;60.90
27258;DHT22;62045;49.986;8.672;2022-12-07T05:56:54;15.60;60.90
27258;DHT22;62045;49.986;8.672;2022-12-07T06:01:57;15.50;60.90
27258;DHT22;62045;49.986;8.672;2022-12-07T06:06:58;15.50;61.10
27258;DHT22;62045;49.986;8.672;2022-12-07T06:11:59;15.40;61.20
27258;DHT22;62045;49.986;8.672;2022-12-07T06:17:01;15.30;61.40
27258;DHT22;62045;49.986;8.672;2022-12-07T06:22:02;15.20;61.60
27258;DHT22;62045;49.986;8.672;2022-12-07T06:27:03;15.10;61.70
27258;DHT22;62045;49.986;8.672;2022-12-07T06:32:06;15.10;61.90
27258;DHT22;62045;49.986;8.672;2022-12-07T06:37:06;15.00;62.00
27258;DHT22;62045;49.986;8.672;2022-12-07T06:42:07;15.00;62.00
27258;DHT22;62045;49.986;8.672;2022-12-07T06:47:09;15.20;61.80
27258;DHT22;62045;49.986;8.672;2022-12-07T06:52:10;15.40;61.40
27258;DHT22;62045;49.986;8.672;2022-12-07T06:57:10;15.50;61.00
27258;DHT22;62045;49.986;8.672;2022-12-07T07:02:12;15.50;60.90
27258;DHT22;62045;49.986;8.672;2022-12-07T07:07:13;15.50;60.80
27258;DHT22;62045;49.986;8.672;2022-12-07T07:12:14;15.50;60.80
27258;DHT22;62045;49.986;8.672;2022-12-07T07:17:16;15.40;60.90
27258;DHT22;62045;49.986;8.672;2022-12-07T07:22:16;15.30;61.00
27258;DHT22;62045;49.986;8.672;2022-12-07T07:27:17;15.20;61.20
27258;DHT22;62045;49.986;8.672;2022-12-07T07:32:19;15.20;61.50
27258;DHT22;62045;49.986;8.672;2022-12-07T07:37:20;15.20;61.60
27258;DHT22;62045;49.986;8.672;2022-12-07T07:42:20;15.10;61.70
27258;DHT22;62045;49.986;8.672;2022-12-07T07:47:23;15.10;61.90
27258;DHT22;62045;49.986;8.672;2022-12-07T07:52:23;15.10;61.80
27258;DHT22;62045;49.986;8.672;2022-12-07T07:57:24;15.30;61.60
27258;DHT22;62045;49.986;8.672;2022-12-07T08:02:26;15.40;61.20
27258;DHT22;62045;49.986;8.672;2022-12-07T08:07:27;15.50;60.90
27258;DHT22;62045;49.986;8.672;2022-12-07T08:12:28;15.60;60.80
27258;DHT22;62045;49.986;8.672;2022-12-07T08:17:30;15.60;61.40
27258;DHT22;62045;49.986;8.672;2022-12-07T08:22:31;15.60;61.70
27258;DHT22;62045;49.986;8.672;2022-12-07T08:27:32;15.50;62.00
27258;DHT22;62045;49.986;8.672;2022-12-07T08:32:37;15.40;61.40
27258;DHT22;62045;49.986;8.672;2022-12-07T08:37:37;15.30;60.30
27258;DHT22;62045;49.986;8.672;2022-12-07T08:42:41;15.20;57.50
27258;DHT22;62045;49.986;8.672;2022-12-07T08:47:43;15.20;54.80
27258;DHT22;62045;49.986;8.672;2022-12-07T08:52:48;15.40;53.40
27258;DHT22;62045;49.986;8.672;2022-12-07T08:57:51;15.60;53.30
27258;DHT22;62045;49.986;8.672;2022-12-07T09:02:53;15.70;53.90
27258;DHT22;62045;49.986;8.672;2022-12-07T09:07:57;15.90;54.20
27258;DHT22;62045;49.986;8.672;2022-12-07T09:12:59;16.10;54.60
27258;DHT22;62045;49.986;8.672;2022-12-07T09:18:01;16.20;54.60
27258;DHT22;62045;49.986;8.672;2022-12-07T09:23:02;16.30;55.20
27258;DHT22;62045;49.986;8.672;2022-12-07T09:28:05;16.30;55.70
27258;DHT22;62045;49.986;8.672;2022-12-07T09:33:07;16.30;56.10
27258;DHT22;62045;49.986;8.672;2022-12-07T09:38:08;16.20;56.40
27258;DHT22;62045;49.986;8.672;2022-12-07T09:43:13;16.10;56.70
27258;DHT22;62045;49.986;8.672;2022-12-07T09:48:19;16.00;57.10
27258;DHT22;62045;49.986;8.672;2022-12-07T09:53:25;15.90;57.30
27258;DHT22;62045;49.986;8.672;2022-12-07T09:58:28;15.80;57.60
27258;DHT22;62045;49.986;8.672;2022-12-07T10:03:31;15.70;57.80
27258;DHT22;62045;49.986;8.672;2022-12-07T10:08:33;15.60;58.10
27258;DHT22;62045;49.986;8.672;2022-12-07T10:13:36;15.60;58.40
27258;DHT22;62045;49.986;8.672;2022-12-07T10:18:39;15.50;58.70
27258;DHT22;62045;49.986;8.672;2022-12-07T10:23:41;15.50;58.80
27258;DHT22;62045;49.986;8.672;2022-12-07T10:28:42;15.40;58.90
27258;DHT22;62045;49.986;8.672;2022-12-07T10:33:50;15.40;59.00
27258;DHT22;62045;49.986;8.672;2022-12-07T10:38:53;15.40;59.10
27258;DHT22;62045;49.986;8.672;2022-12-07T10:43:58;15.40;59.10
27258;DHT22;62045;49.986;8.672;2022-12-07T10:49:08;15.50;59.10
27258;DHT22;62045;49.986;8.672;2022-12-07T10:54:23;15.60;59.10
27258;DHT22;62045;49.986;8.672;2022-12-07T10:59:45;15.60;59.10
27258;DHT22;62045;49.986;8.672;2022-12-07T11:04:59;15.60;59.30
27258;DHT22;62045;49.986;8.672;2022-12-07T11:10:02;15.60;59.30
27258;DHT22;62045;49.986;8.672;2022-12-07T11:15:12;15.60;59.90
27258;DHT22;62045;49.986;8.672;2022-12-07T11:20:29;15.60;59.30
27258;DHT22;62045;49.986;8.672;2022-12-07T11:25:41;15.50;59.40
27258;DHT22;62045;49.986;8.672;2022-12-07T11:30:51;15.50;59.40
27258;DHT22;62045;49.986;8.672;2022-12-07T11:36:07;15.40;59.40
27258;DHT22;62045;49.986;8.672;2022-12-07T11:41:22;15.40;59.40
27258;DHT22;62045;49.986;8.672;2022-12-07T11:46:27;15.40;59.40
27258;DHT22;62045;49.986;8.672;2022-12-07T11:51:34;15.30;59.30
27258;DHT22;62045;49.986;8.672;2022-12-07T11:56:37;15.30;59.40
27258;DHT22;62045;49.986;8.672;2022-12-07T12:01:48;15.40;59.40
27258;DHT22;62045;49.986;8.672;2022-12-07T12:06:53;15.50;59.50
27258;DHT22;62045;49.986;8.672;2022-12-07T12:12:06;15.50;59.50
27258;DHT22;62045;49.986;8.672;2022-12-07T12:17:37;15.60;60.80
27258;DHT22;62045;49.986;8.672;2022-12-07T12:22:44;15.60;61.20
27258;DHT22;62045;49.986;8.672;2022-12-07T12:27:48;15.60;61.40
27258;DHT22;62045;49.986;8.672;2022-12-07T12:32:50;15.60;61.90
27258;DHT22;62045;49.986;8.672;2022-12-07T12:37:54;15.50;61.90
27258;DHT22;62045;49.986;8.672;2022-12-07T12:42:56;15.40;62.00
27258;DHT22;62045;49.986;8.672;2022-12-07T12:48:00;15.40;62.20
27258;DHT22;62045;49.986;8.672;2022-12-07T12:53:22;15.30;62.20
27258;DHT22;62045;49.986;8.672;2022-12-07T12:58:41;15.20;62.40
27258;DHT22;62045;49.986;8.672;2022-12-07T13:03:52;15.20;62.40
27258;DHT22;62045;49.986;8.672;2022-12-07T13:08:57;15.20;62.40
27258;DHT22;62045;49.986;8.672;2022-12-07T13:19:56;15.30;63.70
27258;DHT22;62045;49.986;8.672;2022-12-07T13:24:59;15.40;62.70
27258;DHT22;62045;49.986;8.672;2022-12-07T13:30:11;15.50;62.40
27258;DHT22;62045;49.986;8.672;2022-12-07T13:35:34;15.50;62.10
27258;DHT22;62045;49.986;8.672;2022-12-07T13:40:36;15.50;62.00
27258;DHT22;62045;49.986;8.672;2022-12-07T13:45:37;15.50;62.10
27258;DHT22;62045;49.986;8.672;2022-12-07T13:50:38;15.50;62.20
27258;DHT22;62045;49.986;8.672;2022-12-07T13:55:46;15.40;62.20
27258;DHT22;62045;49.986;8.672;2022-12-07T14:00:47;15.40;62.40
27258;DHT22;62045;49.986;8.672;2022-12-07T14:06:03;15.30;62.40
27258;DHT22;62045;49.986;8.672;2022-12-07T14:11:09;15.20;62.50
27258;DHT22;62045;49.986;8.672;2022-12-07T14:16:22;15.10;62.70
27258;DHT22;62045;49.986;8.672;2022-12-07T14:21:25;15.10;62.80
27258;DHT22;62045;49.986;8.672;2022-12-07T14:26:28;15.10;62.90
27258;DHT22;62045;49.986;8.672;2022-12-07T14:31:29;15.10;62.90
27258;DHT22;62045;49.986;8.672;2022-12-07T14:36:29;15.30;63.30
27258;DHT22;62045;49.986;8.672;2022-12-07T14:41:31;15.50;63.50
27258;DHT22;62045;49.986;8.672;2022-12-07T14:46:32;15.60;63.60
27258;DHT22;62045;49.986;8.672;2022-12-07T14:51:33;15.60;63.70
27258;DHT22;62045;49.986;8.672;2022-12-07T14:56:37;15.60;63.70
27258;DHT22;62045;49.986;8.672;2022-12-07T15:01:38;15.50;63.60
27258;DHT22;62045;49.986;8.672;2022-12-07T15:06:39;15.50;63.70
27258;DHT22;62045;49.986;8.672;2022-12-07T15:11:41;15.40;63.70
27258;DHT22;62045;49.986;8.672;2022-12-07T15:16:42;15.40;63.80
27258;DHT22;62045;49.986;8.672;2022-12-07T15:21:43;15.30;63.90
27258;DHT22;62045;49.986;8.672;2022-12-07T15:26:46;15.20;63.90
27258;DHT22;62045;49.986;8.672;2022-12-07T15:31:48;15.20;64.00
27258;DHT22;62045;49.986;8.672;2022-12-07T15:36:49;15.10;64.00
27258;DHT22;62045;49.986;8.672;2022-12-07T15:41:51;15.10;64.00
27258;DHT22;62045;49.986;8.672;2022-12-07T15:46:52;15.20;63.90
27258;DHT22;62045;49.986;8.672;2022-12-07T15:51:52;15.30;63.50
27258;DHT22;62045;49.986;8.672;2022-12-07T15:56:55;15.50;63.20
27258;DHT22;62045;49.986;8.672;2022-12-07T16:01:56;15.60;62.80
27258;DHT22;62045;49.986;8.672;2022-12-07T16:06:57;15.60;62.60
27258;DHT22;62045;49.986;8.672;2022-12-07T16:11:59;15.60;62.70
27258;DHT22;62045;49.986;8.672;2022-12-07T16:17:00;15.60;62.80
27258;DHT22;62045;49.986;8.672;2022-12-07T16:22:01;15.60;62.90
27258;DHT22;62045;49.986;8.672;2022-12-07T16:27:03;15.50;63.00
27258;DHT22;62045;49.986;8.672;2022-12-07T16:32:04;15.40;63.00
27258;DHT22;62045;49.986;8.672;2022-12-07T16:37:04;15.40;63.10
27258;DHT22;62045;49.986;8.672;2022-12-07T16:42:07;15.40;63.10
27258;DHT22;62045;49.986;8.672;2022-12-07T16:47:07;15.30;63.00
27258;DHT22;62045;49.986;8.672;2022-12-07T16:52:08;15.30;63.00
27258;DHT22;62045;49.986;8.672;2022-12-07T16:57:10;15.20;63.00
27258;DHT22;62045;49.986;8.672;2022-12-07T17:02:11;15.20;63.10
27258;DHT22;62045;49.986;8.672;2022-12-07T17:07:12;15.30;63.10
27258;DHT22;62045;49.986;8.672;2022-12-07T17:12:14;15.40;62.80
27258;DHT22;62045;49.986;8.672;2022-12-07T17:17:15;15.50;62.50
27258;DHT22;62045;49.986;8.672;2022-12-07T17:22:16;15.60;62.90
27258;DHT22;62045;49.986;8.672;2022-12-07T17:27:18;15.70;63.30
27258;DHT22;62045;49.986;8.672;2022-12-07T17:32:19;15.70;63.60
27258;DHT22;62045;49.986;8.672;2022-12-07T17:37:19;15.70;64.40
27258;DHT22;62045;49.986;8.672;2022-12-07T17:42:21;15.70;65.20
27258;DHT22;62045;49.986;8.672;2022-12-07T17:47:22;15.60;65.90
27258;DHT22;62045;49.986;8.672;2022-12-07T17:52:23;15.60;65.70
27258;DHT22;62045;49.986;8.672;2022-12-07T17:57:25;15.60;66.10
27258;DHT22;62045;49.986;8.672;2022-12-07T18:02:25;15.60;66.30
27258;DHT22;62045;49.986;8.672;2022-12-07T18:07:26;15.60;66.40
27258;DHT22;62045;49.986;8.672;2022-12-07T18:12:28;15.50;66.30
27258;DHT22;62045;49.986;8.672;2022-12-07T18:17:29;15.50;66.20
27258;DHT22;62045;49.986;8.672;2022-12-07T18:22:29;15.50;66.30
27258;DHT22;62045;49.986;8.672;2022-12-07T18:27:32;15.50;66.10
27258;DHT22;62045;49.986;8.672;2022-12-07T18:32:32;15.50;66.10
27258;DHT22;62045;49.986;8.672;2022-12-07T18:37:33;15.50;65.90
27258;DHT22;62045;49.986;8.672;2022-12-07T18:42:35;15.50;66.30
27258;DHT22;62045;49.986;8.672;2022-12-07T18:47:36;15.60;65.20
27258;DHT22;62045;49.986;8.672;2022-12-07T18:52:37;15.60;65.00
27258;DHT22;62045;49.986;8.672;2022-12-07T18:57:39;15.60;64.80
27258;DHT22;62045;49.986;8.672;2022-12-07T19:02:39;15.50;64.80
27258;DHT22;62045;49.986;8.672;2022-12-07T19:07:41;15.50;64.90
27258;DHT22;62045;49.986;8.672;2022-12-07T19:12:43;15.40;64.90
27258;DHT22;62045;49.986;8.672;2022-12-07T19:17:44;15.40;64.90
27258;DHT22;62045;49.986;8.672;2022-12-07T19:22:45;15.40;65.00
27258;DHT22;62045;49.986;8.672;2022-12-07T19:27:47;15.40;64.90
27258;DHT22;62045;49.986;8.672;2022-12-07T19:32:48;15.30;64.80
27258;DHT22;62045;49.986;8.672;2022-12-07T19:37:48;15.30;64.90
27258;DHT22;62045;49.986;8.672;2022-12-07T19:42:51;15.30;64.90
27258;DHT22;62045;49.986;8.672;2022-12-07T19:47:51;15.40;64.80
27258;DHT22;62045;49.986;8.672;2022-12-07T19:52:52;15.50;64.40
27258;DHT22;62045;49.986;8.672;2022-12-07T19:57:54;15.50;64.10
27258;DHT22;62045;49.986;8.672;2022-12-07T20:02:55;15.60;63.90
27258;DHT22;62045;49.986;8.672;2022-12-07T20:07:55;15.60;63.80
27258;DHT22;62045;49.986;8.672;2022-12-07T20:12:57;15.50;63.80
27258;DHT22;62045;49.986;8.672;2022-12-07T20:17:58;15.50;63.90
27258;DHT22;62045;49.986;8.672;2022-12-07T20:22:59;15.40;63.90
27258;DHT22;62045;49.986;8.672;2022-12-07T20:28:01;15.30;64.00
27258;DHT22;62045;49.986;8.672;2022-12-07T20:33:02;15.30;64.40
27258;DHT22;62045;49.986;8.672;2022-12-07T20:38:02;15.20;64.50
27258;DHT22;62045;49.986;8.672;2022-12-07T20:43:05;15.20;64.70
27258;DHT22;62045;49.986;8.672;2022-12-07T20:48:07;15.10;65.50
27258;DHT22;62045;49.986;8.672;2022-12-07T20:53:08;15.20;64.80
27258;DHT22;62045;49.986;8.672;2022-12-07T20:58:10;15.30;64.60
27258;DHT22;62045;49.986;8.672;2022-12-07T21:03:11;15.40;64.10
27258;DHT22;62045;49.986;8.672;2022-12-07T21:08:12;15.50;64.60
27258;DHT22;62045;49.986;8.672;2022-12-07T21:13:14;15.50;63.60
27258;DHT22;62045;49.986;8.672;2022-12-07T21:18:15;15.50;63.50
27258;DHT22;62045;49.986;8.672;2022-12-07T21:23:15;15.50;63.60
27258;DHT22;62045;49.986;8.672;2022-12-07T21:28:17;15.40;63.60
27258;DHT22;62045;49.986;8.672;2022-12-07T21:33:18;15.40;63.80
27258;DHT22;62045;49.986;8.672;2022-12-07T21:38:19;15.30;63.80
27258;DHT22;62045;49.986;8.672;2022-12-07T21:43:21;15.20;63.90
27258;DHT22;62045;49.986;8.672;2022-12-07T21:48:22;15.20;64.10
27258;DHT22;62045;49.986;8.672;2022-12-07T21:53:23;15.10;64.20
27258;DHT22;62045;49.986;8.672;2022-12-07T21:58:25;15.00;64.30
27258;DHT22;62045;49.986;8.672;2022-12-07T22:03:26;15.00;64.50
27258;DHT22;62045;49.986;8.672;2022-12-07T22:08:27;14.90;64.60
27258;DHT22;62045;49.986;8.672;2022-12-07T22:13:29;14.90;64.70
27258;DHT22;62045;49.986;8.672;2022-12-07T22:18:30;14.90;64.70
27258;DHT22;62045;49.986;8.672;2022-12-07T22:23:31;14.90;64.70
27258;DHT22;62045;49.986;8.672;2022-12-07T22:28:36;14.90;64.60
27258;DHT22;62045;49.986;8.672;2022-12-07T22:33:37;14.90;64.60
27258;DHT22;62045;49.986;8.672;2022-12-07T22:38:39;15.00;64.60
27258;DHT22;62045;49.986;8.672;2022-12-07T22:43:41;15.10;64.40
27258;DHT22;62045;49.986;8.672;2022-12-07T22:48:41;15.20;64.20
27258;DHT22;62045;49.986;8.672;2022-12-07T22:53:42;15.40;63.70
27258;DHT22;62045;49.986;8.672;2022-12-07T22:58:45;15.60;63.20
27258;DHT22;62045;49.986;8.672;2022-12-07T23:03:46;15.70;62.80
27258;DHT22;62045;49.986;8.672;2022-12-07T23:08:47;15.80;62.60
27258;DHT22;62045;49.986;8.672;2022-12-07T23:13:49;15.80;62.40
27258;DHT22;62045;49.986;8.672;2022-12-07T23:18:50;15.70;62.40
27258;DHT22;62045;49.986;8.672;2022-12-07T23:23:51;15.70;62.60
27258;DHT22;62045;49.986;8.672;2022-12-07T23:28:53;15.60;62.70
27258;DHT22;62045;49.986;8.672;2022-12-07T23:33:54;15.50;62.80
27258;DHT22;62045;49.986;8.672;2022-12-07T23:38:56;15.40;62.90
27258;DHT22;62045;49.986;8.672;2022-12-07T23:44:00;15.30;63.20
27258;DHT22;62045;49.986;8.672;2022-12-07T23:49:03;15.30;63.40
27258;DHT22;62045;49.986;8.672;2022-12-07T23:54:04;15.20;63.40
27258;DHT22;62045;49.986;8.672;2022-12-07T23:59:06;15.10;63.60
